createdAt,value
2022-09-20T00:01:10.498Z,2.00
2022-09-20T00:04:08.491Z,0.20
2022-09-20T00:07:06.125Z,1.00
2022-09-20T00:10:02.920Z,2.00
2022-09-20T00:13:00.264Z,0.00
2022-09-20T00:15:57.019Z,1.40
2022-09-20T00:18:55.484Z,1.20
2022-09-20T00:21:53.188Z,0.00
2022-09-20T00:24:49.973Z,1.00
2022-09-20T00:27:47.725Z,1.00
2022-09-20T00:30:44.757Z,1.00
2022-09-20T00:34:00.712Z,1.20
2022-09-20T00:36:58.052Z,1.00
2022-09-20T00:39:55.298Z,0.60
2022-09-20T00:42:52.434Z,0.00
2022-09-20T00:45:50.004Z,0.60
2022-09-20T00:48:47.156Z,1.00
2022-09-20T00:51:47.176Z,0.00
2022-09-20T00:54:45.044Z,1.00
2022-09-20T00:57:43.286Z,0.60
2022-09-20T01:00:40.065Z,1.00
2022-09-20T01:03:37.043Z,0.00
2022-09-20T01:06:34.263Z,0.00
2022-09-20T01:09:31.204Z,0.00
2022-09-20T01:12:30.477Z,0.00
2022-09-20T01:15:28.004Z,0.00
2022-09-20T01:18:25.394Z,1.00
2022-09-20T01:21:22.323Z,0.40
2022-09-20T01:24:43.114Z,1.00
2022-09-20T01:27:49.427Z,1.00
2022-09-20T01:31:04.264Z,1.00
2022-09-20T01:34:02.333Z,0.00
2022-09-20T01:37:11.836Z,0.00
2022-09-20T01:40:12.164Z,0.00
2022-09-20T01:43:20.430Z,0.80
2022-09-20T01:46:31.540Z,0.60
2022-09-20T01:49:38.728Z,0.80
2022-09-20T01:53:06.767Z,0.00
2022-09-20T01:56:07.012Z,1.00
2022-09-20T01:59:23.707Z,0.00
2022-09-20T02:02:53.120Z,1.00
2022-09-20T02:06:04.194Z,0.80
2022-09-20T02:09:13.878Z,0.80
2022-09-20T02:12:42.114Z,1.00
2022-09-20T02:15:51.277Z,1.00
2022-09-20T02:19:07.903Z,1.00
2022-09-20T02:22:30.088Z,1.00
2022-09-20T02:25:33.479Z,1.00
2022-09-20T02:28:52.189Z,1.00
2022-09-20T02:32:07.704Z,1.00
2022-09-20T02:35:17.265Z,0.00
2022-09-20T02:38:32.464Z,0.00
2022-09-20T02:41:46.960Z,0.80
2022-09-20T02:44:48.312Z,1.00
2022-09-20T02:47:45.327Z,1.00
2022-09-20T02:50:59.909Z,1.00
2022-09-20T02:54:13.867Z,0.80
2022-09-20T02:57:43.414Z,1.00
2022-09-20T03:00:54.115Z,0.00
2022-09-20T03:04:22.502Z,0.00
2022-09-20T03:07:19.191Z,2.00
2022-09-20T03:10:40.695Z,0.00
2022-09-20T03:14:12.486Z,1.00
2022-09-20T03:17:31.484Z,1.00
2022-09-20T03:20:46.685Z,0.60
2022-09-20T03:23:59.368Z,1.00
2022-09-20T03:27:34.826Z,1.00
2022-09-20T03:30:49.383Z,0.00
2022-09-20T03:34:13.951Z,1.00
2022-09-20T03:37:13.797Z,0.40
2022-09-20T03:40:29.753Z,0.80
2022-09-20T03:43:46.069Z,0.00
2022-09-20T03:46:47.064Z,1.00
2022-09-20T03:49:57.513Z,1.00
2022-09-20T03:53:16.425Z,1.00
2022-09-20T03:56:46.922Z,1.00
2022-09-20T03:59:46.985Z,1.60
2022-09-20T04:02:59.574Z,1.00
2022-09-20T04:06:20.803Z,1.00
2022-09-20T04:10:03.606Z,0.00
2022-09-20T04:13:22.075Z,1.00
2022-09-20T04:16:55.783Z,1.00
2022-09-20T04:19:57.052Z,1.00
2022-09-20T04:22:54.528Z,1.00
2022-09-20T04:25:51.403Z,0.00
2022-09-20T04:29:22.915Z,0.20
2022-09-20T04:32:24.409Z,0.60
2022-09-20T04:36:04.783Z,1.00
2022-09-20T04:39:20.453Z,0.60
2022-09-20T04:42:42.844Z,2.20
2022-09-20T04:46:24.494Z,1.80
2022-09-20T04:49:45.727Z,1.00
2022-09-20T04:53:04.916Z,1.20
2022-09-20T04:56:35.840Z,1.80
2022-09-20T04:59:55.600Z,1.00
2022-09-20T05:03:14.974Z,0.40
2022-09-20T05:06:14.422Z,2.00
2022-09-20T05:09:19.789Z,1.00
2022-09-20T05:12:17.353Z,1.40
2022-09-20T05:15:36.424Z,1.00
2022-09-20T05:18:54.661Z,0.00
2022-09-20T05:22:06.671Z,1.40
2022-09-20T05:25:10.186Z,2.00
2022-09-20T05:28:12.890Z,1.00
2022-09-20T05:31:40.555Z,1.00
2022-09-20T05:34:52.091Z,1.00
2022-09-20T05:41:42.198Z,1.20
2022-09-20T05:45:30.833Z,1.60
2022-09-20T05:48:58.382Z,1.00
2022-09-20T05:52:14.592Z,1.60
2022-09-20T05:55:21.995Z,2.00
2022-09-20T05:58:40.537Z,1.40
2022-09-20T06:01:41.423Z,0.80
2022-09-20T06:05:15.877Z,1.00
2022-09-20T06:08:13.363Z,2.00
2022-09-20T06:11:31.488Z,1.80
2022-09-20T06:15:02.083Z,2.00
2022-09-20T06:18:11.646Z,1.00
2022-09-20T06:21:16.718Z,1.00
2022-09-20T06:24:32.703Z,1.00
2022-09-20T06:27:34.325Z,1.00
2022-09-20T06:30:34.784Z,1.00
2022-09-20T06:33:32.511Z,2.00
2022-09-20T06:36:52.886Z,1.00
2022-09-20T06:40:33.221Z,2.00
2022-09-20T06:43:31.603Z,1.20
2022-09-20T06:46:29.585Z,1.40
2022-09-20T06:49:29.185Z,1.60
2022-09-20T06:52:26.008Z,2.00
2022-09-20T06:55:29.366Z,1.00
2022-09-20T06:58:26.562Z,1.20
2022-09-20T07:01:30.187Z,1.80
2022-09-20T07:04:27.182Z,2.00
2022-09-20T07:07:25.461Z,1.00
2022-09-20T07:10:22.053Z,1.00
2022-09-20T07:13:20.912Z,1.00
2022-09-20T07:16:18.809Z,2.80
2022-09-20T07:19:16.538Z,1.40
2022-09-20T07:22:14.526Z,1.60
2022-09-20T07:25:11.512Z,1.60
2022-09-20T07:28:08.498Z,1.20
2022-09-20T07:31:05.454Z,1.00
2022-09-20T07:34:02.366Z,1.00
2022-09-20T07:37:02.581Z,2.00
2022-09-20T07:39:59.732Z,1.60
2022-09-20T07:42:57.237Z,1.40
2022-09-20T07:45:55.975Z,1.00
2022-09-20T07:48:53.456Z,1.00
2022-09-20T07:51:50.362Z,1.00
2022-09-20T07:54:48.522Z,1.20
2022-09-20T07:57:45.654Z,1.60
2022-09-20T08:00:42.577Z,1.40
2022-09-20T08:03:39.919Z,2.20
2022-09-20T08:06:41.305Z,2.00
2022-09-20T08:09:38.605Z,1.60
2022-09-20T08:16:01.825Z,1.00
2022-09-20T08:19:00.916Z,1.60
2022-09-20T08:21:58.397Z,2.60
2022-09-20T08:24:55.802Z,2.20
2022-09-20T08:27:54.089Z,2.40
2022-09-20T08:30:51.410Z,2.40
2022-09-20T08:33:48.757Z,2.20
2022-09-20T08:36:51.856Z,3.60
2022-09-20T08:39:58.169Z,4.00
2022-09-20T08:42:55.416Z,9.40
2022-09-20T08:45:52.424Z,9.80
2022-09-20T08:48:50.044Z,7.00
2022-09-20T08:51:50.655Z,6.80
2022-09-20T08:54:47.507Z,7.40
2022-09-20T08:57:46.562Z,6.40
2022-09-20T09:00:44.387Z,2.80
2022-09-20T09:03:41.304Z,10.40
2022-09-20T09:06:38.902Z,5.20
2022-09-20T09:09:38.120Z,11.80
2022-09-20T09:12:35.641Z,9.60
2022-09-20T09:15:36.793Z,9.80
2022-09-20T09:18:35.690Z,11.00
2022-09-20T09:21:32.444Z,10.40
2022-09-20T09:24:31.453Z,11.60
2022-09-20T09:27:28.490Z,11.40
2022-09-20T09:30:35.761Z,15.60
2022-09-20T09:33:34.347Z,14.40
2022-09-20T09:36:33.397Z,13.00
2022-09-20T09:39:32.657Z,27.00
2022-09-20T09:42:29.803Z,22.25
2022-09-20T09:45:38.592Z,16.75
2022-09-20T09:48:38.595Z,27.00
2022-09-20T09:51:37.075Z,21.25
2022-09-20T09:54:36.620Z,17.50
2022-09-20T09:57:55.792Z,35.50
2022-09-20T10:00:52.683Z,40.00
2022-09-20T10:04:16.551Z,38.50
2022-09-20T10:07:21.918Z,44.25
2022-09-20T10:10:53.360Z,38.25
2022-09-20T10:14:00.507Z,35.25
2022-09-20T10:17:19.175Z,49.25
2022-09-20T10:20:31.476Z,41.00
2022-09-20T10:24:01.945Z,50.75
2022-09-20T10:27:13.248Z,57.25
2022-09-20T10:30:22.501Z,57.67
2022-09-20T10:33:42.570Z,55.25
2022-09-20T10:36:48.460Z,49.00
2022-09-20T10:39:45.493Z,53.75
2022-09-20T10:43:08.370Z,65.00
2022-09-20T10:46:31.232Z,64.00
2022-09-20T10:49:53.034Z,68.33
2022-09-20T10:52:56.827Z,77.75
2022-09-20T10:56:02.421Z,75.33
2022-09-20T10:59:33.404Z,77.67
2022-09-20T11:02:49.948Z,73.67
2022-09-20T11:06:17.594Z,71.75
2022-09-20T11:09:17.702Z,55.33
2022-09-20T11:12:29.029Z,56.00
2022-09-20T11:15:47.257Z,50.67
2022-09-20T11:18:52.831Z,42.50
2022-09-20T11:22:03.388Z,41.00
2022-09-20T11:25:11.673Z,33.75
2022-09-20T11:28:13.791Z,34.00
2022-09-20T11:31:30.087Z,36.25
2022-09-20T11:34:32.484Z,36.25
2022-09-20T11:37:34.257Z,33.75
2022-09-20T11:40:56.561Z,40.50
2022-09-20T11:43:55.475Z,39.50
2022-09-20T11:46:56.504Z,42.00
2022-09-20T11:50:21.710Z,40.50
2022-09-20T11:53:39.773Z,41.25
2022-09-20T11:56:36.905Z,45.00
2022-09-20T11:59:36.517Z,51.33
2022-09-20T12:02:52.582Z,49.67
2022-09-20T12:06:05.906Z,55.67
2022-09-20T12:09:23.747Z,57.33
2022-09-20T12:12:39.793Z,55.00
2022-09-20T12:15:39.254Z,60.67
2022-09-20T12:18:46.833Z,61.25
2022-09-20T12:21:58.705Z,60.75
2022-09-20T12:25:37.864Z,57.67
2022-09-20T12:28:37.874Z,61.00
2022-09-20T12:31:38.385Z,62.25
2022-09-20T12:34:36.223Z,65.00
2022-09-20T12:37:33.812Z,71.25
2022-09-20T12:40:30.973Z,72.00
2022-09-20T12:43:28.394Z,68.75
2022-09-20T12:46:43.037Z,68.67
2022-09-20T12:50:05.283Z,65.33
2022-09-20T12:53:07.176Z,65.00
2022-09-20T12:56:06.173Z,61.00
2022-09-20T12:59:07.511Z,59.33
2022-09-20T13:02:43.114Z,59.67
2022-09-20T13:05:52.700Z,59.33
2022-09-20T13:08:58.821Z,59.67
2022-09-20T13:11:56.966Z,59.67
2022-09-20T13:14:53.575Z,55.67
2022-09-20T13:17:52.144Z,60.00
2022-09-20T13:20:50.580Z,54.00
2022-09-20T13:23:51.449Z,60.00
2022-09-20T13:26:49.402Z,63.00
2022-09-20T13:29:46.782Z,62.33
2022-09-20T13:32:43.777Z,60.33
2022-09-20T13:35:41.866Z,57.67
2022-09-20T13:38:38.722Z,61.00
2022-09-20T13:41:36.448Z,66.00
2022-09-20T13:44:34.421Z,66.00
2022-09-20T13:47:32.230Z,68.33
2022-09-20T13:50:33.145Z,61.67
2022-09-20T13:53:41.800Z,67.67
2022-09-20T13:56:40.865Z,67.67
2022-09-20T13:59:42.436Z,67.67
2022-09-20T14:02:40.295Z,79.25
2022-09-20T14:05:37.618Z,73.75
2022-09-20T14:08:40.774Z,76.75
2022-09-20T14:11:37.571Z,72.50
2022-09-20T14:14:35.758Z,69.33
2022-09-20T14:17:32.770Z,69.00
2022-09-20T14:20:31.278Z,72.33
2022-09-20T14:23:29.568Z,71.00
2022-09-20T14:26:39.722Z,75.00
2022-09-20T14:29:40.502Z,74.00
2022-09-20T14:32:50.949Z,67.33
2022-09-20T14:35:51.324Z,66.33
2022-09-20T14:38:50.728Z,66.00
2022-09-20T14:41:47.724Z,61.00
2022-09-20T14:44:44.667Z,69.33
2022-09-20T14:47:57.150Z,62.50
2022-09-20T14:51:11.798Z,80.67
2022-09-20T14:54:08.451Z,79.50
2022-09-20T14:57:06.109Z,67.33
2022-09-20T15:00:16.257Z,66.00
2022-09-20T15:03:16.130Z,72.33
2022-09-20T15:06:13.636Z,68.40
2022-09-20T15:09:13.538Z,86.33
2022-09-20T15:12:18.572Z,88.50
2022-09-20T15:15:20.100Z,78.50
2022-09-20T15:18:22.689Z,76.67
2022-09-20T15:21:19.887Z,83.33
2022-09-20T15:24:18.900Z,90.67
2022-09-20T15:27:16.346Z,97.00
2022-09-20T15:30:16.327Z,85.00
2022-09-20T15:33:14.100Z,86.75
2022-09-20T15:36:11.033Z,85.75
2022-09-20T15:39:08.685Z,71.50
2022-09-20T15:42:05.827Z,74.33
2022-09-20T15:45:03.118Z,68.67
2022-09-20T15:47:59.905Z,65.00
2022-09-20T15:51:04.200Z,61.67
2022-09-20T15:54:03.523Z,60.33
2022-09-20T15:57:00.892Z,56.33
2022-09-20T15:59:58.832Z,59.33
2022-09-20T16:02:56.012Z,56.67
2022-09-20T16:06:04.657Z,55.00
2022-09-20T16:09:01.801Z,57.00
2022-09-20T16:12:00.334Z,61.00
2022-09-20T16:14:57.749Z,59.67
2022-09-20T16:18:13.479Z,56.33
2022-09-20T16:21:12.542Z,59.33
2022-09-20T16:24:10.281Z,59.67
2022-09-20T16:27:08.749Z,60.25
2022-09-20T16:30:06.267Z,57.00
2022-09-20T16:33:05.635Z,66.67
2022-09-20T16:36:02.700Z,65.67
2022-09-20T16:39:00.182Z,67.33
2022-09-20T16:42:04.903Z,59.25
2022-09-20T16:45:01.632Z,64.67
2022-09-20T16:47:59.689Z,67.00
2022-09-20T16:50:57.599Z,62.00
2022-09-20T16:53:55.772Z,64.75
2022-09-20T16:56:53.257Z,62.33
2022-09-20T16:59:51.994Z,62.33
2022-09-20T17:02:52.961Z,62.25
2022-09-20T17:05:51.338Z,63.00
2022-09-20T17:08:58.794Z,60.25
2022-09-20T17:11:57.014Z,68.00
2022-09-20T17:14:54.202Z,64.00
2022-09-20T17:17:52.402Z,62.50
2022-09-20T17:20:50.067Z,66.67
2022-09-20T17:23:50.982Z,61.00
2022-09-20T17:26:48.992Z,56.25
2022-09-20T17:29:47.681Z,54.75
2022-09-20T17:32:48.162Z,52.50
2022-09-20T17:35:52.235Z,49.50
2022-09-20T17:38:53.752Z,56.25
2022-09-20T17:41:50.981Z,55.25
2022-09-20T17:44:47.987Z,53.50
2022-09-20T17:47:45.740Z,56.25
2022-09-20T17:50:44.161Z,53.00
2022-09-20T17:53:40.873Z,53.00
2022-09-20T17:56:38.813Z,56.75
2022-09-20T17:59:36.685Z,51.00
2022-09-20T18:02:35.210Z,49.75
2022-09-20T18:05:31.776Z,52.75
2022-09-20T18:08:29.011Z,59.50
2022-09-20T18:11:37.078Z,62.50
2022-09-20T18:14:34.086Z,65.75
2022-09-20T18:17:31.406Z,66.67
2022-09-20T18:20:29.880Z,68.00
2022-09-20T18:23:27.478Z,60.75
2022-09-20T18:26:27.548Z,61.25
2022-09-20T18:29:25.122Z,58.25
2022-09-20T18:32:22.248Z,58.75
2022-09-20T18:35:19.262Z,65.00
2022-09-20T18:38:17.915Z,62.00
2022-09-20T18:41:14.924Z,57.25
2022-09-20T18:44:14.464Z,68.00
2022-09-20T18:47:11.986Z,66.50
2022-09-20T18:50:13.389Z,62.00
2022-09-20T18:53:10.892Z,60.00
2022-09-20T18:56:09.566Z,63.50
2022-09-20T18:59:08.993Z,58.50
2022-09-20T19:02:21.347Z,67.00
2022-09-20T19:05:24.280Z,65.00
2022-09-20T19:08:34.241Z,67.67
2022-09-20T19:11:42.936Z,68.67
2022-09-20T19:15:01.890Z,63.50
2022-09-20T19:18:13.857Z,69.50
2022-09-20T19:21:37.525Z,69.00
2022-09-20T19:24:48.068Z,70.75
2022-09-20T19:27:45.502Z,65.33
2022-09-20T19:30:43.507Z,62.00
2022-09-20T19:33:41.846Z,65.00
2022-09-20T19:36:49.495Z,67.33
2022-09-20T19:40:04.373Z,67.67
2022-09-20T19:43:36.890Z,69.33
2022-09-20T19:46:33.864Z,68.00
2022-09-20T19:49:59.884Z,72.33
2022-09-20T19:52:57.525Z,71.00
2022-09-20T19:55:57.520Z,67.00
2022-09-20T19:58:56.360Z,69.67
2022-09-20T20:01:54.634Z,64.00
2022-09-20T20:04:52.841Z,65.33
2022-09-20T20:08:21.538Z,71.67
2022-09-20T20:11:34.341Z,75.00
2022-09-20T20:14:36.800Z,72.00
2022-09-20T20:17:46.226Z,72.67
2022-09-20T20:20:46.246Z,71.33
2022-09-20T20:23:49.201Z,72.00
2022-09-20T20:26:45.995Z,68.00
2022-09-20T20:29:43.180Z,65.00
2022-09-20T20:32:42.359Z,70.00
2022-09-20T20:35:40.113Z,69.33
2022-09-20T20:38:37.698Z,72.00
2022-09-20T20:41:35.159Z,72.67
2022-09-20T20:44:35.048Z,68.00
2022-09-20T20:47:34.396Z,69.33
2022-09-20T20:50:33.951Z,69.33
2022-09-20T20:53:36.003Z,71.25
2022-09-20T20:56:33.252Z,73.33
2022-09-20T20:59:30.234Z,76.25
2022-09-20T21:02:27.198Z,76.67
2022-09-20T21:05:24.488Z,71.00
2022-09-20T21:08:22.311Z,73.67
2022-09-20T21:11:23.189Z,76.67
2022-09-20T21:14:19.751Z,70.00
2022-09-20T21:17:17.241Z,72.67
2022-09-20T21:20:14.096Z,75.33
2022-09-20T21:23:11.078Z,76.25
2022-09-20T21:26:09.306Z,77.00
2022-09-20T21:29:07.801Z,75.25
2022-09-20T21:32:05.174Z,77.00
2022-09-20T21:35:02.002Z,81.75
2022-09-20T21:37:58.942Z,78.25
2022-09-20T21:41:06.509Z,79.75
2022-09-20T21:44:04.828Z,79.50
2022-09-20T21:47:02.214Z,72.75
2022-09-20T21:49:59.181Z,79.50
2022-09-20T21:52:56.026Z,77.25
2022-09-20T21:56:00.092Z,82.50
2022-09-20T21:58:58.007Z,81.25
2022-09-20T22:01:55.250Z,75.50
2022-09-20T22:04:51.911Z,75.50
2022-09-20T22:07:49.463Z,76.50
2022-09-20T22:10:55.477Z,81.75
2022-09-20T22:13:52.803Z,80.50
2022-09-20T22:16:51.343Z,78.67
2022-09-20T22:19:48.100Z,80.00
2022-09-20T22:22:45.090Z,81.50
2022-09-20T22:25:42.533Z,78.75
2022-09-20T22:28:40.541Z,82.00
2022-09-20T22:31:44.690Z,83.25
2022-09-20T22:34:42.360Z,80.00
2022-09-20T22:37:39.359Z,84.00
2022-09-20T22:40:36.247Z,89.25
2022-09-20T22:43:34.199Z,81.33
2022-09-20T22:46:31.594Z,87.00
2022-09-20T22:49:29.554Z,90.67
2022-09-20T22:52:27.361Z,88.75
2022-09-20T22:55:24.358Z,87.00
2022-09-20T22:58:20.855Z,87.00
2022-09-20T23:01:26.019Z,81.75
2022-09-20T23:04:23.567Z,86.50
2022-09-20T23:07:20.873Z,93.33
2022-09-20T23:10:18.430Z,92.00
2022-09-20T23:13:15.328Z,90.25
2022-09-20T23:16:13.203Z,92.75
2022-09-20T23:19:10.458Z,92.25
2022-09-20T23:22:07.141Z,92.25
2022-09-20T23:25:04.518Z,95.00
2022-09-20T23:28:01.943Z,91.50
2022-09-20T23:31:07.750Z,89.75
2022-09-20T23:34:06.158Z,88.50
2022-09-20T23:37:02.876Z,93.25
2022-09-20T23:40:00.857Z,90.75
2022-09-20T23:42:57.974Z,92.00
2022-09-20T23:45:55.366Z,88.75
2022-09-20T23:48:52.740Z,91.50
2022-09-20T23:51:50.097Z,83.00
2022-09-20T23:54:47.095Z,91.75
2022-09-20T23:57:44.327Z,89.00
